Terminal Aerodrome Forecast
Issued by NWS Dallas/Fort Worth, TX

Home | Current Version | Previous Version | Text Only | Print | Product List | Glossary On
Versions: 1 2 3 4 5 6 7 8 9 10 11 12 13 14 15 16 17 18 19 20 21 22 23 24 25 26 27 28 29 30 31 32 33 34 35 36
000
FTUS44 KFWD 271728
TAFACT
TAF
KACT 271728Z 2718/2818 17010KT P6SM SCT025
     FM271900 16010KT P6SM BKN035
     FM272100 16014KT P6SM VCTS SCT015 BKN035CB
     FM280200 15010KT P6SM SCT040 BKN060
     FM280900 15010KT P6SM BKN015
     FM281500 15010KT P6SM SCT015=

USA.gov is the U.S. government's official web portal to all federal, state and local government web resources and services.